Main page
METAR-TAF:

METAR-TAF

Airports :

Çorlu, Turkey

Tekirdağ Çorlu Airport

latitude: 41-08N, longitude: 027-55E, elevation: 173 m

Current weather observation

The report was made 39 minutes ago, at 21:50 UTC
Wind 5 kt from the North
Temperature 21°C
Humidity 94%
Pressure 1014 hPa
Visibility: 8000 m

METAR: LTBU 192150Z 35005KT 8000 NSC 21/20 Q1014 RMK RWY23 36007KT

Time: 01:29 (22:29 UTC)

Forecast

The report was made 5 hours and 49 minutes ago, at 16:40 UTC
Forecast valid from 19 at 18 UTC to 20 at 18 UTC
Wind 12 kt from the North/Northwest
Visibility 10 km or more
Scattered clouds at a height of 3500 ft
Becoming
from 19 at 18 UTC to 19 at 21 UTC
Wind 2 kt from variable directions
Visibility 10 km or more
no clouds below 1500 m and no cumulonimbus
Becoming
from 20 at 03 UTC to 20 at 06 UTC
Wind 12 kt from the North
Scattered clouds at a height of 3500 ft

TAF: LTBU 191640Z 1918/2018 34012KT 9999 SCT035 BECMG 1918/1921 VRB02KT CAVOK BECMG 2003/2006 35012KT SCT035

Weather observations and forecasts of more than 4000 airports (METAR and TAF reports).

The available stations are represented by yellow and red dots on the map.

Hover mouse over dot to see the name of the station.

Then click to see weather observations and forecasts.

To change the map : click on the green buttons with a black cross to zoom in, on the green button with a dash to zoom out, or on the green arrows for adjacent maps.


METAR-TAF: